sensor_id;sensor_type;location;lat;lon;timestamp;pressure;altitude;pressure_sealevel;temperature;humidity
47716;BME280;33476;50.984;3.538;2023-04-29T00:01:04;101692.25;;;14.26;65.16
47716;BME280;33476;50.984;3.538;2023-04-29T00:03:30;101688.06;;;14.22;64.81
47716;BME280;33476;50.984;3.538;2023-04-29T00:05:57;101703.06;;;14.20;64.75
47716;BME280;33476;50.984;3.538;2023-04-29T00:08:23;101694.31;;;14.20;65.16
47716;BME280;33476;50.984;3.538;2023-04-29T00:10:48;101696.19;;;14.18;64.97
47716;BME280;33476;50.984;3.538;2023-04-29T00:13:14;101703.22;;;14.17;65.14
47716;BME280;33476;50.984;3.538;2023-04-29T00:15:40;101698.03;;;14.16;65.15
47716;BME280;33476;50.984;3.538;2023-04-29T00:18:06;101699.75;;;14.17;64.89
47716;BME280;33476;50.984;3.538;2023-04-29T00:20:31;101703.22;;;14.17;65.03
47716;BME280;33476;50.984;3.538;2023-04-29T00:22:57;101702.38;;;14.17;64.85
47716;BME280;33476;50.984;3.538;2023-04-29T00:25:22;101701.66;;;14.13;65.06
47716;BME280;33476;50.984;3.538;2023-04-29T00:27:48;101702.59;;;14.12;65.05
47716;BME280;33476;50.984;3.538;2023-04-29T00:30:13;101711.47;;;14.10;65.32
47716;BME280;33476;50.984;3.538;2023-04-29T00:32:39;101709.63;;;14.12;65.18
47716;BME280;33476;50.984;3.538;2023-04-29T00:35:05;101710.47;;;14.12;65.25
47716;BME280;33476;50.984;3.538;2023-04-29T00:37:30;101720.19;;;14.10;65.04
47716;BME280;33476;50.984;3.538;2023-04-29T00:39:56;101714.94;;;14.10;65.21
47716;BME280;33476;50.984;3.538;2023-04-29T00:42:21;101714.94;;;14.10;65.15
47716;BME280;33476;50.984;3.538;2023-04-29T00:44:46;101718.50;;;14.09;64.91
47716;BME280;33476;50.984;3.538;2023-04-29T00:47:12;101724.69;;;14.08;65.07
47716;BME280;33476;50.984;3.538;2023-04-29T00:49:38;101723.03;;;14.05;65.43
47716;BME280;33476;50.984;3.538;2023-04-29T00:52:04;101721.34;;;14.04;65.44
47716;BME280;33476;50.984;3.538;2023-04-29T00:54:32;101723.03;;;14.05;65.21
47716;BME280;33476;50.984;3.538;2023-04-29T00:56:58;101719.56;;;14.05;65.17
47716;BME280;33476;50.984;3.538;2023-04-29T00:59:25;101727.34;;;14.06;65.55
47716;BME280;33476;50.984;3.538;2023-04-29T01:01:59;101716.00;;;14.06;65.15
47716;BME280;33476;50.984;3.538;2023-04-29T01:04:25;101721.25;;;14.06;65.47
47716;BME280;33476;50.984;3.538;2023-04-29T01:15:03;101726.03;;;13.98;65.15
47716;BME280;33476;50.984;3.538;2023-04-29T01:17:35;101736.47;;;13.99;65.16
47716;BME280;33476;50.984;3.538;2023-04-29T01:20:03;101730.38;;;13.99;64.84
47716;BME280;33476;50.984;3.538;2023-04-29T01:22:28;101736.59;;;13.96;64.87
47716;BME280;33476;50.984;3.538;2023-04-29T01:24:54;101735.84;;;13.94;65.06
47716;BME280;33476;50.984;3.538;2023-04-29T01:27:54;101739.31;;;13.95;65.10
47716;BME280;33476;50.984;3.538;2023-04-29T01:30:16;101734.06;;;13.95;65.05
47716;BME280;33476;50.984;3.538;2023-04-29T01:38:46;101740.16;;;13.95;64.70
47716;BME280;33476;50.984;3.538;2023-04-29T01:41:30;101737.81;;;13.89;65.16
47716;BME280;33476;50.984;3.538;2023-04-29T01:44:01;101746.53;;;13.90;65.09
47716;BME280;33476;50.984;3.538;2023-04-29T01:46:29;101751.75;;;13.91;64.90
47716;BME280;33476;50.984;3.538;2023-04-29T01:48:54;101742.19;;;13.90;65.17
47716;BME280;33476;50.984;3.538;2023-04-29T01:51:20;101733.41;;;13.90;64.80
47716;BME280;33476;50.984;3.538;2023-04-29T01:53:46;101745.69;;;13.89;64.86
47716;BME280;33476;50.984;3.538;2023-04-29T01:56:11;101742.38;;;13.86;64.96
47716;BME280;33476;50.984;3.538;2023-04-29T01:58:36;101741.44;;;13.87;64.96
47716;BME280;33476;50.984;3.538;2023-04-29T02:01:02;101743.16;;;13.88;64.74
47716;BME280;33476;50.984;3.538;2023-04-29T02:03:27;101746.84;;;13.84;64.71
47716;BME280;33476;50.984;3.538;2023-04-29T02:05:53;101747.81;;;13.81;64.86
47716;BME280;33476;50.984;3.538;2023-04-29T02:08:18;101752.09;;;13.84;64.73
47716;BME280;33476;50.984;3.538;2023-04-29T02:10:54;101747.97;;;13.78;64.41
47716;BME280;33476;50.984;3.538;2023-04-29T02:13:20;101756.72;;;13.78;64.42
47716;BME280;33476;50.984;3.538;2023-04-29T02:15:45;101757.91;;;13.71;64.56
47716;BME280;33476;50.984;3.538;2023-04-29T02:18:11;101765.44;;;13.60;64.50
47716;BME280;33476;50.984;3.538;2023-04-29T02:20:36;101759.41;;;13.58;64.21
47716;BME280;33476;50.984;3.538;2023-04-29T02:23:01;101769.00;;;13.59;63.72
47716;BME280;33476;50.984;3.538;2023-04-29T02:25:27;101773.25;;;13.62;63.47
47716;BME280;33476;50.984;3.538;2023-04-29T02:27:52;101767.91;;;13.63;63.55
47716;BME280;33476;50.984;3.538;2023-04-29T02:30:18;101767.91;;;13.63;63.40
47716;BME280;33476;50.984;3.538;2023-04-29T02:32:43;101774.84;;;13.64;63.72
47716;BME280;33476;50.984;3.538;2023-04-29T02:35:08;101770.41;;;13.66;63.06
47716;BME280;33476;50.984;3.538;2023-04-29T02:37:34;101768.84;;;13.62;63.19
47716;BME280;33476;50.984;3.538;2023-04-29T02:40:00;101776.72;;;13.62;63.32
47716;BME280;33476;50.984;3.538;2023-04-29T02:42:25;101780.25;;;13.61;63.22
47716;BME280;33476;50.984;3.538;2023-04-29T02:44:51;101778.63;;;13.59;63.22
47716;BME280;33476;50.984;3.538;2023-04-29T02:47:16;101777.56;;;13.63;63.31
47716;BME280;33476;50.984;3.538;2023-04-29T02:49:41;101787.28;;;13.61;63.38
47716;BME280;33476;50.984;3.538;2023-04-29T02:52:07;101782.53;;;13.50;63.29
47716;BME280;33476;50.984;3.538;2023-04-29T02:54:32;101782.72;;;13.45;63.34
47716;BME280;33476;50.984;3.538;2023-04-29T02:56:57;101790.59;;;13.45;63.45
47716;BME280;33476;50.984;3.538;2023-04-29T02:59:23;101784.34;;;13.48;63.31
47716;BME280;33476;50.984;3.538;2023-04-29T03:01:48;101797.44;;;13.49;63.39
47716;BME280;33476;50.984;3.538;2023-04-29T03:04:14;101793.22;;;13.45;63.33
47716;BME280;33476;50.984;3.538;2023-04-29T03:06:39;101791.59;;;13.43;63.07
47716;BME280;33476;50.984;3.538;2023-04-29T03:09:05;101793.97;;;13.29;63.06
47716;BME280;33476;50.984;3.538;2023-04-29T03:11:31;101798.53;;;13.24;63.21
47716;BME280;33476;50.984;3.538;2023-04-29T03:13:56;101801.81;;;13.29;63.35
47716;BME280;33476;50.984;3.538;2023-04-29T03:16:22;101805.38;;;13.28;63.18
47716;BME280;33476;50.984;3.538;2023-04-29T03:18:48;101801.16;;;13.24;62.84
47716;BME280;33476;50.984;3.538;2023-04-29T03:21:13;101798.63;;;13.22;62.89
47716;BME280;33476;50.984;3.538;2023-04-29T03:23:39;101800.38;;;13.21;62.73
47716;BME280;33476;50.984;3.538;2023-04-29T03:26:04;101801.97;;;13.26;62.55
47716;BME280;33476;50.984;3.538;2023-04-29T03:28:30;101807.16;;;13.27;62.65
47716;BME280;33476;50.984;3.538;2023-04-29T03:30:55;101808.72;;;13.31;62.28
47716;BME280;33476;50.984;3.538;2023-04-29T03:33:21;101805.31;;;13.29;61.96
47716;BME280;33476;50.984;3.538;2023-04-29T03:35:47;101801.81;;;13.29;62.09
47716;BME280;33476;50.984;3.538;2023-04-29T03:38:12;101810.78;;;13.25;62.00
47716;BME280;33476;50.984;3.538;2023-04-29T03:40:37;101809.97;;;13.23;62.46
47716;BME280;33476;50.984;3.538;2023-04-29T03:43:03;101822.16;;;13.24;62.65
47716;BME280;33476;50.984;3.538;2023-04-29T03:45:28;101818.88;;;13.18;62.62
47716;BME280;33476;50.984;3.538;2023-04-29T03:47:54;101825.69;;;13.23;62.39
47716;BME280;33476;50.984;3.538;2023-04-29T03:50:19;101833.53;;;13.24;62.38
47716;BME280;33476;50.984;3.538;2023-04-29T03:52:45;101844.88;;;13.25;62.22
47716;BME280;33476;50.984;3.538;2023-04-29T03:55:11;101844.81;;;13.26;62.72
47716;BME280;33476;50.984;3.538;2023-04-29T03:57:37;101845.75;;;13.24;62.47
47716;BME280;33476;50.984;3.538;2023-04-29T04:00:03;101856.16;;;13.27;62.83
47716;BME280;33476;50.984;3.538;2023-04-29T04:02:28;101845.59;;;13.28;62.44
47716;BME280;33476;50.984;3.538;2023-04-29T04:04:54;101857.78;;;13.29;62.70
47716;BME280;33476;50.984;3.538;2023-04-29T04:07:19;101857.84;;;13.28;62.64
47716;BME280;33476;50.984;3.538;2023-04-29T04:09:45;101859.63;;;13.27;62.90
47716;BME280;33476;50.984;3.538;2023-04-29T04:12:10;101857.13;;;13.24;62.80
47716;BME280;33476;50.984;3.538;2023-04-29T04:14:35;101861.66;;;13.20;62.71
47716;BME280;33476;50.984;3.538;2023-04-29T04:17:01;101865.13;;;13.21;62.43
47716;BME280;33476;50.984;3.538;2023-04-29T04:19:26;101865.91;;;13.23;62.07
47716;BME280;33476;50.984;3.538;2023-04-29T04:21:53;101877.25;;;13.24;62.13
47716;BME280;33476;50.984;3.538;2023-04-29T04:24:19;101878.97;;;13.25;62.00
47716;BME280;33476;50.984;3.538;2023-04-29T04:26:44;101872.06;;;13.22;62.13
47716;BME280;33476;50.984;3.538;2023-04-29T04:29:10;101878.25;;;13.21;62.41
47716;BME280;33476;50.984;3.538;2023-04-29T04:31:35;101880.88;;;13.21;62.07
47716;BME280;33476;50.984;3.538;2023-04-29T04:34:01;101876.53;;;13.20;61.85
47716;BME280;33476;50.984;3.538;2023-04-29T04:36:26;101877.41;;;13.19;62.04
47716;BME280;33476;50.984;3.538;2023-04-29T04:38:52;101878.31;;;13.19;62.08
47716;BME280;33476;50.984;3.538;2023-04-29T04:41:18;101883.56;;;13.19;62.23
47716;BME280;33476;50.984;3.538;2023-04-29T04:43:43;101883.47;;;13.21;61.88
47716;BME280;33476;50.984;3.538;2023-04-29T04:46:12;101881.03;;;13.16;62.11
47716;BME280;33476;50.984;3.538;2023-04-29T04:48:38;101892.31;;;13.18;61.77
47716;BME280;33476;50.984;3.538;2023-04-29T04:51:11;101896.81;;;13.15;62.19
47716;BME280;33476;50.984;3.538;2023-04-29T04:53:37;101890.59;;;13.17;61.90
47716;BME280;33476;50.984;3.538;2023-04-29T04:56:03;101905.53;;;13.15;62.13
47716;BME280;33476;50.984;3.538;2023-04-29T04:58:29;101907.31;;;13.15;62.00
47716;BME280;33476;50.984;3.538;2023-04-29T05:00:56;101917.78;;;13.15;62.22
47716;BME280;33476;50.984;3.538;2023-04-29T05:03:21;101914.47;;;13.11;62.29
47716;BME280;33476;50.984;3.538;2023-04-29T05:05:54;101920.03;;;13.04;62.31
47716;BME280;33476;50.984;3.538;2023-04-29T05:08:19;101928.56;;;13.09;62.45
47716;BME280;33476;50.984;3.538;2023-04-29T05:10:45;101929.47;;;13.08;62.31
47716;BME280;33476;50.984;3.538;2023-04-29T05:13:10;101933.97;;;13.04;62.15
47716;BME280;33476;50.984;3.538;2023-04-29T05:15:35;101946.31;;;13.02;62.39
47716;BME280;33476;50.984;3.538;2023-04-29T05:18:01;101940.38;;;12.97;62.52
47716;BME280;33476;50.984;3.538;2023-04-29T05:20:26;101936.06;;;12.96;62.18
47716;BME280;33476;50.984;3.538;2023-04-29T05:22:52;101949.41;;;12.90;62.49
47716;BME280;33476;50.984;3.538;2023-04-29T05:25:17;101956.56;;;12.86;62.40
47716;BME280;33476;50.984;3.538;2023-04-29T05:27:43;101948.81;;;12.83;62.10
47716;BME280;33476;50.984;3.538;2023-04-29T05:30:08;101947.97;;;12.83;61.82
47716;BME280;33476;50.984;3.538;2023-04-29T05:32:34;101949.66;;;12.84;61.72
47716;BME280;33476;50.984;3.538;2023-04-29T05:34:59;101941.00;;;12.82;61.65
47716;BME280;33476;50.984;3.538;2023-04-29T05:37:25;101942.81;;;12.80;61.92
47716;BME280;33476;50.984;3.538;2023-04-29T05:39:55;101947.09;;;12.82;61.89
47716;BME280;33476;50.984;3.538;2023-04-29T05:42:20;101947.84;;;12.86;61.48
47716;BME280;33476;50.984;3.538;2023-04-29T05:44:46;101953.06;;;12.86;61.36
47716;BME280;33476;50.984;3.538;2023-04-29T05:47:11;101956.38;;;12.91;61.69
47716;BME280;33476;50.984;3.538;2023-04-29T05:49:38;101956.25;;;12.94;61.15
47716;BME280;33476;50.984;3.538;2023-04-29T05:52:03;101953.56;;;12.96;61.22
47716;BME280;33476;50.984;3.538;2023-04-29T05:54:31;101966.59;;;12.97;61.19
47716;BME280;33476;50.984;3.538;2023-04-29T05:56:56;101962.22;;;12.98;61.04
47716;BME280;33476;50.984;3.538;2023-04-29T05:59:22;101968.38;;;12.97;61.28
47716;BME280;33476;50.984;3.538;2023-04-29T06:01:47;101971.78;;;12.99;61.23
47716;BME280;33476;50.984;3.538;2023-04-29T06:04:12;101970.91;;;13.00;61.08
47716;BME280;33476;50.984;3.538;2023-04-29T06:06:38;101982.19;;;13.02;61.25
47716;BME280;33476;50.984;3.538;2023-04-29T06:09:03;101977.72;;;13.04;61.23
47716;BME280;33476;50.984;3.538;2023-04-29T06:11:29;101988.28;;;13.02;61.43
47716;BME280;33476;50.984;3.538;2023-04-29T06:13:55;101982.13;;;13.03;61.12
47716;BME280;33476;50.984;3.538;2023-04-29T06:16:21;101984.81;;;13.02;61.16
47716;BME280;33476;50.984;3.538;2023-04-29T06:18:47;101988.34;;;13.01;61.46
47716;BME280;33476;50.984;3.538;2023-04-29T06:21:12;101990.91;;;13.02;61.49
47716;BME280;33476;50.984;3.538;2023-04-29T06:23:37;101990.75;;;13.05;61.40
47716;BME280;33476;50.984;3.538;2023-04-29T06:26:03;101996.88;;;13.06;61.63
47716;BME280;33476;50.984;3.538;2023-04-29T06:28:28;102004.63;;;13.09;61.51
47716;BME280;33476;50.984;3.538;2023-04-29T06:30:54;101996.88;;;13.06;61.66
47716;BME280;33476;50.984;3.538;2023-04-29T06:33:19;102002.97;;;13.06;61.20
47716;BME280;33476;50.984;3.538;2023-04-29T06:35:45;102008.97;;;13.10;61.49
47716;BME280;33476;50.984;3.538;2023-04-29T06:38:10;102007.19;;;13.10;61.59
47716;BME280;33476;50.984;3.538;2023-04-29T06:40:36;102011.50;;;13.11;61.43
47716;BME280;33476;50.984;3.538;2023-04-29T06:43:01;102014.91;;;13.13;61.68
47716;BME280;33476;50.984;3.538;2023-04-29T06:45:28;102014.81;;;13.16;61.66
47716;BME280;33476;50.984;3.538;2023-04-29T06:47:54;102012.94;;;13.20;61.78
47716;BME280;33476;50.984;3.538;2023-04-29T06:50:19;102022.59;;;13.19;61.64
47716;BME280;33476;50.984;3.538;2023-04-29T06:52:45;102023.31;;;13.23;61.52
47716;BME280;33476;50.984;3.538;2023-04-29T06:55:10;102029.31;;;13.27;61.65
47716;BME280;33476;50.984;3.538;2023-04-29T06:57:36;102029.16;;;13.30;61.41
47716;BME280;33476;50.984;3.538;2023-04-29T07:00:02;102033.47;;;13.32;61.57
47716;BME280;33476;50.984;3.538;2023-04-29T07:02:28;102041.22;;;13.35;61.28
47716;BME280;33476;50.984;3.538;2023-04-29T07:04:53;102037.66;;;13.36;61.73
47716;BME280;33476;50.984;3.538;2023-04-29T07:07:19;102042.84;;;13.38;61.57
47716;BME280;33476;50.984;3.538;2023-04-29T07:09:45;102048.00;;;13.41;61.56
47716;BME280;33476;50.984;3.538;2023-04-29T07:12:10;102044.38;;;13.43;61.44
47716;BME280;33476;50.984;3.538;2023-04-29T07:14:35;102038.13;;;13.46;61.58
47716;BME280;33476;50.984;3.538;2023-04-29T07:17:01;102048.56;;;13.47;61.36
47716;BME280;33476;50.984;3.538;2023-04-29T07:19:27;102045.00;;;13.50;61.21
47716;BME280;33476;50.984;3.538;2023-04-29T07:21:52;102044.91;;;13.52;61.30
47716;BME280;33476;50.984;3.538;2023-04-29T07:24:17;102045.78;;;13.52;61.48
47716;BME280;33476;50.984;3.538;2023-04-29T07:26:43;102046.69;;;13.51;61.51
47716;BME280;33476;50.984;3.538;2023-04-29T07:29:12;102045.84;;;13.51;61.65
47716;BME280;33476;50.984;3.538;2023-04-29T07:31:37;102043.09;;;13.54;61.61
47716;BME280;33476;50.984;3.538;2023-04-29T07:34:02;102048.34;;;13.54;61.62
47716;BME280;33476;50.984;3.538;2023-04-29T07:36:28;102054.38;;;13.56;61.66
47716;BME280;33476;50.984;3.538;2023-04-29T07:38:53;102049.06;;;13.57;61.77
47716;BME280;33476;50.984;3.538;2023-04-29T07:41:19;102053.41;;;13.58;61.55
47716;BME280;33476;50.984;3.538;2023-04-29T07:43:44;102054.97;;;13.62;61.76
47716;BME280;33476;50.984;3.538;2023-04-29T07:46:10;102059.97;;;13.68;61.56
47716;BME280;33476;50.984;3.538;2023-04-29T07:48:37;102058.22;;;13.69;61.74
47716;BME280;33476;50.984;3.538;2023-04-29T07:51:04;102067.78;;;13.70;61.58
47716;BME280;33476;50.984;3.538;2023-04-29T07:53:29;102064.38;;;13.68;61.20
47716;BME280;33476;50.984;3.538;2023-04-29T07:55:55;102064.44;;;13.66;61.35
47716;BME280;33476;50.984;3.538;2023-04-29T07:58:20;102072.13;;;13.71;61.35
47716;BME280;33476;50.984;3.538;2023-04-29T08:00:46;102069.31;;;13.75;61.54
47716;BME280;33476;50.984;3.538;2023-04-29T08:03:11;102074.38;;;13.80;61.15
47716;BME280;33476;50.984;3.538;2023-04-29T08:05:37;102077.66;;;13.85;61.19
47716;BME280;33476;50.984;3.538;2023-04-29T08:08:03;102081.00;;;13.89;60.83
47716;BME280;33476;50.984;3.538;2023-04-29T08:10:28;102084.44;;;13.91;60.98
47716;BME280;33476;50.984;3.538;2023-04-29T08:12:54;102081.59;;;13.95;60.59
47716;BME280;33476;50.984;3.538;2023-04-29T08:15:20;102075.38;;;13.98;60.53
47716;BME280;33476;50.984;3.538;2023-04-29T08:17:45;102076.97;;;14.02;60.56
47716;BME280;33476;50.984;3.538;2023-04-29T08:20:11;102081.16;;;14.06;60.47
47716;BME280;33476;50.984;3.538;2023-04-29T08:22:36;102073.09;;;14.11;60.32
47716;BME280;33476;50.984;3.538;2023-04-29T08:25:02;102076.56;;;14.11;60.59
47716;BME280;33476;50.984;3.538;2023-04-29T08:27:29;102075.31;;;14.20;60.40
47716;BME280;33476;50.984;3.538;2023-04-29T08:29:54;102074.13;;;14.27;60.47
47716;BME280;33476;50.984;3.538;2023-04-29T08:32:20;102078.31;;;14.31;60.30
47716;BME280;33476;50.984;3.538;2023-04-29T08:34:46;102081.44;;;14.41;60.17
47716;BME280;33476;50.984;3.538;2023-04-29T08:37:11;102082.84;;;14.49;60.08
47716;BME280;33476;50.984;3.538;2023-04-29T08:39:36;102084.97;;;14.60;60.08
47716;BME280;33476;50.984;3.538;2023-04-29T08:42:08;102082.94;;;14.67;59.75
47716;BME280;33476;50.984;3.538;2023-04-29T08:44:34;102075.31;;;14.79;59.31
47716;BME280;33476;50.984;3.538;2023-04-29T08:47:01;102080.47;;;14.82;59.21
47716;BME280;33476;50.984;3.538;2023-04-29T08:49:28;102081.91;;;14.89;59.29
47716;BME280;33476;50.984;3.538;2023-04-29T08:51:53;102090.50;;;14.93;58.96
47716;BME280;33476;50.984;3.538;2023-04-29T08:54:19;102093.88;;;14.95;58.72
47716;BME280;33476;50.984;3.538;2023-04-29T08:56:45;102083.16;;;15.00;58.23
47716;BME280;33476;50.984;3.538;2023-04-29T08:59:14;102091.91;;;15.00;58.43
47716;BME280;33476;50.984;3.538;2023-04-29T09:01:42;102088.63;;;14.95;58.41
47716;BME280;33476;50.984;3.538;2023-04-29T09:04:14;102102.97;;;14.88;58.50
47716;BME280;33476;50.984;3.538;2023-04-29T09:06:41;102102.78;;;14.93;57.92
47716;BME280;33476;50.984;3.538;2023-04-29T09:09:08;102107.03;;;14.95;58.07
47716;BME280;33476;50.984;3.538;2023-04-29T09:11:34;102109.16;;;14.87;57.84
47716;BME280;33476;50.984;3.538;2023-04-29T09:14:00;102109.50;;;14.79;57.87
47716;BME280;33476;50.984;3.538;2023-04-29T09:16:27;102113.84;;;14.80;58.21
47716;BME280;33476;50.984;3.538;2023-04-29T09:18:52;102122.66;;;14.79;57.59
47716;BME280;33476;50.984;3.538;2023-04-29T09:21:20;102119.84;;;14.84;57.53
47716;BME280;33476;50.984;3.538;2023-04-29T09:23:47;102116.63;;;14.96;56.92
47716;BME280;33476;50.984;3.538;2023-04-29T09:26:14;102121.72;;;15.01;57.18
47716;BME280;33476;50.984;3.538;2023-04-29T09:28:39;102116.22;;;15.05;56.75
47716;BME280;33476;50.984;3.538;2023-04-29T09:31:08;102119.66;;;15.07;56.83
47716;BME280;33476;50.984;3.538;2023-04-29T09:33:53;102125.78;;;15.08;56.83
47716;BME280;33476;50.984;3.538;2023-04-29T09:39:07;102131.19;;;15.24;56.78
47716;BME280;33476;50.984;3.538;2023-04-29T09:41:41;102130.25;;;15.25;57.00
47716;BME280;33476;50.984;3.538;2023-04-29T09:44:08;102127.53;;;15.26;56.42
47716;BME280;33476;50.984;3.538;2023-04-29T09:46:34;102127.47;;;15.28;56.64
47716;BME280;33476;50.984;3.538;2023-04-29T09:49:20;102126.88;;;15.21;56.27
47716;BME280;33476;50.984;3.538;2023-04-29T09:52:01;102124.13;;;15.24;56.07
47716;BME280;33476;50.984;3.538;2023-04-29T09:54:29;102129.09;;;15.30;55.83
47716;BME280;33476;50.984;3.538;2023-04-29T09:56:57;102127.25;;;15.32;55.97
47716;BME280;33476;50.984;3.538;2023-04-29T09:59:23;102126.66;;;15.44;56.10
47716;BME280;33476;50.984;3.538;2023-04-29T10:01:51;102132.34;;;15.54;55.61
47716;BME280;33476;50.984;3.538;2023-04-29T10:04:19;102135.56;;;15.61;55.30
47716;BME280;33476;50.984;3.538;2023-04-29T10:06:45;102138.94;;;15.64;55.28
47716;BME280;33476;50.984;3.538;2023-04-29T10:09:13;102140.84;;;15.61;55.14
47716;BME280;33476;50.984;3.538;2023-04-29T10:11:47;102127.38;;;15.67;55.27
47716;BME280;33476;50.984;3.538;2023-04-29T10:14:38;102126.63;;;15.65;54.88
47716;BME280;33476;50.984;3.538;2023-04-29T10:17:13;102126.78;;;15.60;54.34
47716;BME280;33476;50.984;3.538;2023-04-29T10:19:51;102138.47;;;15.55;55.32
47716;BME280;33476;50.984;3.538;2023-04-29T10:22:28;102133.78;;;15.61;55.10
47716;BME280;33476;50.984;3.538;2023-04-29T10:25:00;102139.78;;;15.65;54.75
47716;BME280;33476;50.984;3.538;2023-04-29T10:27:26;102132.81;;;15.64;54.85
47716;BME280;33476;50.984;3.538;2023-04-29T10:29:54;102135.13;;;15.70;54.68
47716;BME280;33476;50.984;3.538;2023-04-29T10:32:21;102140.09;;;15.76;54.56
47716;BME280;33476;50.984;3.538;2023-04-29T10:34:47;102129.28;;;15.82;54.67
47716;BME280;33476;50.984;3.538;2023-04-29T10:37:14;102139.66;;;15.85;54.54
47716;BME280;33476;50.984;3.538;2023-04-29T10:39:47;102141.34;;;15.86;54.25
47716;BME280;33476;50.984;3.538;2023-04-29T10:42:34;102147.28;;;15.91;54.44
47716;BME280;33476;50.984;3.538;2023-04-29T10:45:21;102148.44;;;16.03;54.31
47716;BME280;33476;50.984;3.538;2023-04-29T10:51:26;102144.28;;;16.16;53.52
47716;BME280;33476;50.984;3.538;2023-04-29T10:53:19;102147.47;;;16.23;53.62
47716;BME280;33476;50.984;3.538;2023-04-29T10:55:52;102151.63;;;16.27;53.70
47716;BME280;33476;50.984;3.538;2023-04-29T10:58:37;102153.41;;;16.44;53.22
47716;BME280;33476;50.984;3.538;2023-04-29T11:01:04;102148.81;;;16.65;52.67
47716;BME280;33476;50.984;3.538;2023-04-29T11:09:02;102157.03;;;17.09;52.70
47716;BME280;33476;50.984;3.538;2023-04-29T11:11:57;102144.25;;;17.01;51.82
47716;BME280;33476;50.984;3.538;2023-04-29T11:14:24;102149.63;;;17.00;51.25
47716;BME280;33476;50.984;3.538;2023-04-29T11:16:52;102152.00;;;16.89;51.67
47716;BME280;33476;50.984;3.538;2023-04-29T11:19:18;102148.50;;;16.88;51.63
47716;BME280;33476;50.984;3.538;2023-04-29T11:21:45;102154.63;;;17.04;51.95
47716;BME280;33476;50.984;3.538;2023-04-29T11:24:12;102143.34;;;17.18;50.86
47716;BME280;33476;50.984;3.538;2023-04-29T11:26:39;102139.66;;;17.21;50.69
47716;BME280;33476;50.984;3.538;2023-04-29T11:29:06;102145.03;;;17.19;50.65
47716;BME280;33476;50.984;3.538;2023-04-29T11:31:35;102132.63;;;17.21;50.43
47716;BME280;33476;50.984;3.538;2023-04-29T11:34:03;102139.44;;;17.25;50.42
47716;BME280;33476;50.984;3.538;2023-04-29T11:36:30;102137.44;;;17.29;50.27
47716;BME280;33476;50.984;3.538;2023-04-29T11:38:59;102135.34;;;17.35;50.10
47716;BME280;33476;50.984;3.538;2023-04-29T11:41:25;102138.41;;;17.44;50.24
47716;BME280;33476;50.984;3.538;2023-04-29T11:43:55;102136.47;;;17.47;50.55
47716;BME280;33476;50.984;3.538;2023-04-29T11:46:21;102137.22;;;17.49;49.91
47716;BME280;33476;50.984;3.538;2023-04-29T11:48:48;102139.66;;;17.52;49.65
47716;BME280;33476;50.984;3.538;2023-04-29T11:51:15;102140.38;;;17.56;50.05
47716;BME280;33476;50.984;3.538;2023-04-29T11:53:42;102146.75;;;17.52;49.40
47716;BME280;33476;50.984;3.538;2023-04-29T11:56:11;102146.09;;;17.48;50.05
47716;BME280;33476;50.984;3.538;2023-04-29T11:58:37;102143.16;;;17.53;49.93
47716;BME280;33476;50.984;3.538;2023-04-29T12:01:03;102140.38;;;17.56;50.34
47716;BME280;33476;50.984;3.538;2023-04-29T12:03:31;102134.81;;;17.60;50.09
47716;BME280;33476;50.984;3.538;2023-04-29T12:05:56;102137.13;;;17.66;50.39
47716;BME280;33476;50.984;3.538;2023-04-29T12:08:27;102136.03;;;17.71;50.03
47716;BME280;33476;50.984;3.538;2023-04-29T12:10:57;102139.44;;;17.88;50.49
47716;BME280;33476;50.984;3.538;2023-04-29T12:13:24;102136.00;;;17.86;49.62
47716;BME280;33476;50.984;3.538;2023-04-29T12:15:51;102143.44;;;17.80;49.56
47716;BME280;33476;50.984;3.538;2023-04-29T12:18:17;102135.69;;;17.77;48.95
47716;BME280;33476;50.984;3.538;2023-04-29T12:20:44;102132.38;;;17.73;49.59
47716;BME280;33476;50.984;3.538;2023-04-29T12:23:17;102132.47;;;17.72;49.75
47716;BME280;33476;50.984;3.538;2023-04-29T12:25:51;102135.78;;;17.75;49.69
47716;BME280;33476;50.984;3.538;2023-04-29T12:28:17;102138.06;;;17.81;48.87
47716;BME280;33476;50.984;3.538;2023-04-29T12:30:44;102136.72;;;17.74;48.57
47716;BME280;33476;50.984;3.538;2023-04-29T12:33:17;102142.41;;;17.66;48.88
47716;BME280;33476;50.984;3.538;2023-04-29T12:35:44;102140.44;;;17.70;49.08
47716;BME280;33476;50.984;3.538;2023-04-29T12:38:09;102141.38;;;17.69;48.62
47716;BME280;33476;50.984;3.538;2023-04-29T12:40:35;102138.16;;;17.64;48.75
47716;BME280;33476;50.984;3.538;2023-04-29T12:43:07;102139.84;;;17.65;48.99
47716;BME280;33476;50.984;3.538;2023-04-29T12:45:34;102145.75;;;17.70;48.68
47716;BME280;33476;50.984;3.538;2023-04-29T12:48:00;102148.38;;;17.70;49.21
47716;BME280;33476;50.984;3.538;2023-04-29T12:50:30;102147.59;;;17.68;48.86
47716;BME280;33476;50.984;3.538;2023-04-29T12:52:57;102144.00;;;17.69;49.19
47716;BME280;33476;50.984;3.538;2023-04-29T12:55:22;102139.25;;;17.76;48.86
47716;BME280;33476;50.984;3.538;2023-04-29T12:57:48;102145.25;;;17.79;48.55
47716;BME280;33476;50.984;3.538;2023-04-29T13:00:13;102148.88;;;17.77;48.31
47716;BME280;33476;50.984;3.538;2023-04-29T13:02:39;102144.53;;;17.60;48.05
47716;BME280;33476;50.984;3.538;2023-04-29T13:05:05;102147.44;;;17.55;48.64
47716;BME280;33476;50.984;3.538;2023-04-29T13:07:30;102154.25;;;17.59;48.26
47716;BME280;33476;50.984;3.538;2023-04-29T13:09:56;102143.88;;;17.56;48.21
47716;BME280;33476;50.984;3.538;2023-04-29T13:12:21;102145.56;;;17.57;48.40
47716;BME280;33476;50.984;3.538;2023-04-29T13:14:46;102152.13;;;17.66;48.79